sensor_id;sensor_type;location;lat;lon;timestamp;P1;durP1;ratioP1;P2;durP2;ratioP2
62523;SDS011;53689;56.878;60.672;2023-04-24T00:00:54;7.90;;;3.25;;
62523;SDS011;53689;56.878;60.672;2023-04-24T00:03:22;5.95;;;3.10;;
62523;SDS011;53689;56.878;60.672;2023-04-24T00:05:51;5.35;;;3.28;;
62523;SDS011;53689;56.878;60.672;2023-04-24T00:08:19;7.27;;;3.90;;
62523;SDS011;53689;56.878;60.672;2023-04-24T00:10:47;8.38;;;3.22;;
62523;SDS011;53689;56.878;60.672;2023-04-24T00:13:14;8.38;;;3.63;;
62523;SDS011;53689;56.878;60.672;2023-04-24T00:15:42;6.47;;;3.67;;
62523;SDS011;53689;56.878;60.672;2023-04-24T00:18:09;6.90;;;3.47;;
62523;SDS011;53689;56.878;60.672;2023-04-24T00:20:37;8.73;;;3.85;;
62523;SDS011;53689;56.878;60.672;2023-04-24T00:23:06;8.13;;;3.47;;
62523;SDS011;53689;56.878;60.672;2023-04-24T00:25:34;7.07;;;4.03;;
62523;SDS011;53689;56.878;60.672;2023-04-24T00:28:01;8.25;;;4.30;;
62523;SDS011;53689;56.878;60.672;2023-04-24T00:30:28;9.57;;;4.28;;
62523;SDS011;53689;56.878;60.672;2023-04-24T00:32:56;8.27;;;4.75;;
62523;SDS011;53689;56.878;60.672;2023-04-24T00:35:25;12.23;;;5.00;;
62523;SDS011;53689;56.878;60.672;2023-04-24T00:37:52;9.43;;;4.25;;
62523;SDS011;53689;56.878;60.672;2023-04-24T00:40:21;8.48;;;4.97;;
62523;SDS011;53689;56.878;60.672;2023-04-24T00:42:49;9.18;;;4.93;;
62523;SDS011;53689;56.878;60.672;2023-04-24T00:45:16;11.07;;;5.28;;
62523;SDS011;53689;56.878;60.672;2023-04-24T00:47:44;12.82;;;5.75;;
62523;SDS011;53689;56.878;60.672;2023-04-24T00:50:14;9.05;;;4.90;;
62523;SDS011;53689;56.878;60.672;2023-04-24T00:52:42;8.00;;;4.68;;
62523;SDS011;53689;56.878;60.672;2023-04-24T00:55:11;10.07;;;4.43;;
62523;SDS011;53689;56.878;60.672;2023-04-24T00:57:40;9.05;;;5.25;;
62523;SDS011;53689;56.878;60.672;2023-04-24T01:00:08;10.85;;;4.60;;
62523;SDS011;53689;56.878;60.672;2023-04-24T01:02:37;9.65;;;4.40;;
62523;SDS011;53689;56.878;60.672;2023-04-24T01:05:06;7.95;;;4.68;;
62523;SDS011;53689;56.878;60.672;2023-04-24T01:07:34;10.47;;;6.10;;
62523;SDS011;53689;56.878;60.672;2023-04-24T01:10:02;9.27;;;4.60;;
62523;SDS011;53689;56.878;60.672;2023-04-24T01:12:31;8.85;;;5.35;;
62523;SDS011;53689;56.878;60.672;2023-04-24T01:15:00;8.07;;;4.55;;
62523;SDS011;53689;56.878;60.672;2023-04-24T01:17:28;7.65;;;4.32;;
62523;SDS011;53689;56.878;60.672;2023-04-24T01:19:55;7.90;;;4.60;;
62523;SDS011;53689;56.878;60.672;2023-04-24T01:22:24;8.13;;;4.70;;
62523;SDS011;53689;56.878;60.672;2023-04-24T01:24:52;9.48;;;5.03;;
62523;SDS011;53689;56.878;60.672;2023-04-24T01:27:20;7.65;;;5.13;;
62523;SDS011;53689;56.878;60.672;2023-04-24T01:29:47;11.90;;;5.65;;
62523;SDS011;53689;56.878;60.672;2023-04-24T01:32:16;11.20;;;5.80;;
62523;SDS011;53689;56.878;60.672;2023-04-24T01:34:44;14.57;;;5.63;;
62523;SDS011;53689;56.878;60.672;2023-04-24T01:37:13;11.27;;;5.43;;
62523;SDS011;53689;56.878;60.672;2023-04-24T01:39:42;14.50;;;5.70;;
62523;SDS011;53689;56.878;60.672;2023-04-24T01:42:10;9.82;;;4.82;;
62523;SDS011;53689;56.878;60.672;2023-04-24T01:44:40;8.50;;;4.57;;
62523;SDS011;53689;56.878;60.672;2023-04-24T01:47:08;9.43;;;4.90;;
62523;SDS011;53689;56.878;60.672;2023-04-24T01:49:36;12.20;;;4.82;;
62523;SDS011;53689;56.878;60.672;2023-04-24T01:52:05;8.05;;;4.45;;
62523;SDS011;53689;56.878;60.672;2023-04-24T01:54:33;9.18;;;4.53;;
62523;SDS011;53689;56.878;60.672;2023-04-24T01:57:02;8.85;;;4.93;;
62523;SDS011;53689;56.878;60.672;2023-04-24T01:59:31;13.30;;;5.40;;
62523;SDS011;53689;56.878;60.672;2023-04-24T02:02:01;9.10;;;6.10;;
62523;SDS011;53689;56.878;60.672;2023-04-24T02:04:29;9.50;;;5.35;;
62523;SDS011;53689;56.878;60.672;2023-04-24T02:06:56;10.02;;;5.53;;
62523;SDS011;53689;56.878;60.672;2023-04-24T02:09:24;7.53;;;4.97;;
62523;SDS011;53689;56.878;60.672;2023-04-24T02:11:51;8.38;;;4.18;;
62523;SDS011;53689;56.878;60.672;2023-04-24T02:14:20;6.65;;;4.05;;
62523;SDS011;53689;56.878;60.672;2023-04-24T02:16:48;6.45;;;4.55;;
62523;SDS011;53689;56.878;60.672;2023-04-24T02:19:15;6.97;;;3.63;;
62523;SDS011;53689;56.878;60.672;2023-04-24T02:21:43;6.50;;;3.78;;
62523;SDS011;53689;56.878;60.672;2023-04-24T02:24:10;8.10;;;4.45;;
62523;SDS011;53689;56.878;60.672;2023-04-24T02:26:38;7.50;;;4.40;;
62523;SDS011;53689;56.878;60.672;2023-04-24T02:29:06;10.32;;;4.80;;
62523;SDS011;53689;56.878;60.672;2023-04-24T02:31:35;8.88;;;4.50;;
62523;SDS011;53689;56.878;60.672;2023-04-24T02:34:03;11.07;;;4.40;;
62523;SDS011;53689;56.878;60.672;2023-04-24T02:36:30;8.10;;;4.88;;
62523;SDS011;53689;56.878;60.672;2023-04-24T02:38:58;8.13;;;4.70;;
62523;SDS011;53689;56.878;60.672;2023-04-24T02:41:27;7.32;;;4.60;;
62523;SDS011;53689;56.878;60.672;2023-04-24T02:43:55;9.93;;;4.70;;
62523;SDS011;53689;56.878;60.672;2023-04-24T02:46:22;8.43;;;4.60;;
62523;SDS011;53689;56.878;60.672;2023-04-24T02:48:53;6.90;;;4.40;;
62523;SDS011;53689;56.878;60.672;2023-04-24T02:51:22;7.07;;;4.13;;
62523;SDS011;53689;56.878;60.672;2023-04-24T02:53:49;5.53;;;3.65;;
62523;SDS011;53689;56.878;60.672;2023-04-24T02:56:17;8.10;;;4.30;;
62523;SDS011;53689;56.878;60.672;2023-04-24T02:58:45;6.70;;;5.15;;
62523;SDS011;53689;56.878;60.672;2023-04-24T03:01:14;7.65;;;4.97;;
62523;SDS011;53689;56.878;60.672;2023-04-24T03:03:42;7.65;;;4.88;;
62523;SDS011;53689;56.878;60.672;2023-04-24T03:06:12;6.57;;;3.90;;
62523;SDS011;53689;56.878;60.672;2023-04-24T03:08:40;9.73;;;4.60;;
62523;SDS011;53689;56.878;60.672;2023-04-24T03:11:10;7.70;;;4.90;;
62523;SDS011;53689;56.878;60.672;2023-04-24T03:13:38;10.98;;;4.65;;
62523;SDS011;53689;56.878;60.672;2023-04-24T03:16:05;9.07;;;4.60;;
62523;SDS011;53689;56.878;60.672;2023-04-24T03:18:33;7.65;;;4.57;;
62523;SDS011;53689;56.878;60.672;2023-04-24T03:21:02;7.63;;;4.70;;
62523;SDS011;53689;56.878;60.672;2023-04-24T03:23:33;9.53;;;5.37;;
62523;SDS011;53689;56.878;60.672;2023-04-24T03:26:02;7.80;;;3.92;;
62523;SDS011;53689;56.878;60.672;2023-04-24T03:28:30;6.68;;;3.00;;
62523;SDS011;53689;56.878;60.672;2023-04-24T03:31:02;5.57;;;3.03;;
62523;SDS011;53689;56.878;60.672;2023-04-24T03:33:34;5.53;;;3.30;;
62523;SDS011;53689;56.878;60.672;2023-04-24T03:36:03;5.85;;;2.95;;
62523;SDS011;53689;56.878;60.672;2023-04-24T03:38:40;7.05;;;4.20;;
62523;SDS011;53689;56.878;60.672;2023-04-24T03:41:24;7.60;;;4.45;;
62523;SDS011;53689;56.878;60.672;2023-04-24T03:44:08;6.47;;;4.53;;
62523;SDS011;53689;56.878;60.672;2023-04-24T03:46:38;7.78;;;5.30;;
62523;SDS011;53689;56.878;60.672;2023-04-24T03:49:07;6.97;;;4.63;;
62523;SDS011;53689;56.878;60.672;2023-04-24T03:51:38;8.50;;;5.05;;
62523;SDS011;53689;56.878;60.672;2023-04-24T03:54:18;10.18;;;5.25;;
62523;SDS011;53689;56.878;60.672;2023-04-24T03:59:13;10.13;;;6.70;;
62523;SDS011;53689;56.878;60.672;2023-04-24T04:01:46;8.70;;;5.55;;
62523;SDS011;53689;56.878;60.672;2023-04-24T04:06:44;12.35;;;5.80;;
62523;SDS011;53689;56.878;60.672;2023-04-24T04:09:13;7.45;;;5.03;;
62523;SDS011;53689;56.878;60.672;2023-04-24T04:11:43;9.07;;;5.50;;
62523;SDS011;53689;56.878;60.672;2023-04-24T04:14:11;12.52;;;7.43;;
62523;SDS011;53689;56.878;60.672;2023-04-24T04:16:43;9.05;;;6.82;;
62523;SDS011;53689;56.878;60.672;2023-04-24T04:19:11;10.60;;;7.22;;
62523;SDS011;53689;56.878;60.672;2023-04-24T04:21:38;9.98;;;5.90;;
62523;SDS011;53689;56.878;60.672;2023-04-24T04:26:47;7.72;;;5.75;;
62523;SDS011;53689;56.878;60.672;2023-04-24T04:29:22;8.05;;;6.65;;
62523;SDS011;53689;56.878;60.672;2023-04-24T04:31:51;10.52;;;7.13;;
62523;SDS011;53689;56.878;60.672;2023-04-24T04:34:20;11.90;;;8.55;;
62523;SDS011;53689;56.878;60.672;2023-04-24T04:36:48;10.95;;;6.78;;
62523;SDS011;53689;56.878;60.672;2023-04-24T04:39:38;11.48;;;7.57;;
62523;SDS011;53689;56.878;60.672;2023-04-24T04:42:12;12.98;;;8.30;;
62523;SDS011;53689;56.878;60.672;2023-04-24T04:44:43;14.32;;;8.05;;
62523;SDS011;53689;56.878;60.672;2023-04-24T04:47:16;13.82;;;8.73;;
62523;SDS011;53689;56.878;60.672;2023-04-24T04:52:19;11.30;;;7.80;;
62523;SDS011;53689;56.878;60.672;2023-04-24T04:54:51;11.73;;;8.32;;
62523;SDS011;53689;56.878;60.672;2023-04-24T04:57:24;14.13;;;8.32;;
62523;SDS011;53689;56.878;60.672;2023-04-24T04:59:53;18.27;;;9.82;;
62523;SDS011;53689;56.878;60.672;2023-04-24T05:02:34;16.38;;;12.35;;
62523;SDS011;53689;56.878;60.672;2023-04-24T05:05:03;17.15;;;9.52;;
62523;SDS011;53689;56.878;60.672;2023-04-24T05:07:31;15.93;;;9.23;;
62523;SDS011;53689;56.878;60.672;2023-04-24T05:10:00;17.40;;;8.65;;
62523;SDS011;53689;56.878;60.672;2023-04-24T05:12:30;17.00;;;9.13;;
62523;SDS011;53689;56.878;60.672;2023-04-24T05:14:59;15.15;;;7.78;;
62523;SDS011;53689;56.878;60.672;2023-04-24T05:17:28;13.98;;;7.25;;
62523;SDS011;53689;56.878;60.672;2023-04-24T05:19:57;10.73;;;7.32;;
62523;SDS011;53689;56.878;60.672;2023-04-24T05:22:25;12.75;;;7.00;;
62523;SDS011;53689;56.878;60.672;2023-04-24T05:24:53;11.60;;;7.05;;
62523;SDS011;53689;56.878;60.672;2023-04-24T05:27:31;11.40;;;7.00;;
62523;SDS011;53689;56.878;60.672;2023-04-24T05:30:01;12.48;;;5.90;;
62523;SDS011;53689;56.878;60.672;2023-04-24T05:32:30;16.50;;;7.20;;
62523;SDS011;53689;56.878;60.672;2023-04-24T05:34:58;14.70;;;9.40;;
62523;SDS011;53689;56.878;60.672;2023-04-24T05:37:26;15.57;;;9.88;;
62523;SDS011;53689;56.878;60.672;2023-04-24T05:39:54;23.08;;;9.60;;
62523;SDS011;53689;56.878;60.672;2023-04-24T05:42:25;20.77;;;11.30;;
62523;SDS011;53689;56.878;60.672;2023-04-24T05:44:55;15.93;;;9.67;;
62523;SDS011;53689;56.878;60.672;2023-04-24T05:47:23;13.90;;;8.80;;
62523;SDS011;53689;56.878;60.672;2023-04-24T05:49:53;15.43;;;6.97;;
62523;SDS011;53689;56.878;60.672;2023-04-24T05:52:22;11.18;;;7.05;;
62523;SDS011;53689;56.878;60.672;2023-04-24T05:54:50;13.63;;;7.72;;
62523;SDS011;53689;56.878;60.672;2023-04-24T05:57:22;16.45;;;7.22;;
62523;SDS011;53689;56.878;60.672;2023-04-24T06:00:00;13.00;;;6.53;;
62523;SDS011;53689;56.878;60.672;2023-04-24T06:04:58;13.98;;;7.47;;
62523;SDS011;53689;56.878;60.672;2023-04-24T06:07:27;16.90;;;6.90;;
62523;SDS011;53689;56.878;60.672;2023-04-24T06:09:56;15.07;;;7.27;;
62523;SDS011;53689;56.878;60.672;2023-04-24T06:12:24;13.23;;;7.15;;
62523;SDS011;53689;56.878;60.672;2023-04-24T06:15:00;14.38;;;6.63;;
62523;SDS011;53689;56.878;60.672;2023-04-24T06:17:49;14.43;;;8.05;;
62523;SDS011;53689;56.878;60.672;2023-04-24T06:20:19;15.83;;;7.30;;
62523;SDS011;53689;56.878;60.672;2023-04-24T06:22:47;14.50;;;6.85;;
62523;SDS011;53689;56.878;60.672;2023-04-24T06:25:15;20.70;;;8.40;;
62523;SDS011;53689;56.878;60.672;2023-04-24T06:27:43;13.82;;;8.10;;
62523;SDS011;53689;56.878;60.672;2023-04-24T06:30:12;15.10;;;7.30;;
62523;SDS011;53689;56.878;60.672;2023-04-24T06:32:41;16.30;;;7.25;;
62523;SDS011;53689;56.878;60.672;2023-04-24T06:35:08;14.38;;;7.53;;
62523;SDS011;53689;56.878;60.672;2023-04-24T06:37:37;12.68;;;7.18;;
62523;SDS011;53689;56.878;60.672;2023-04-24T06:40:07;17.85;;;7.30;;
62523;SDS011;53689;56.878;60.672;2023-04-24T06:42:36;15.52;;;7.50;;
62523;SDS011;53689;56.878;60.672;2023-04-24T06:45:07;19.35;;;8.60;;
62523;SDS011;53689;56.878;60.672;2023-04-24T06:47:37;15.40;;;5.88;;
62523;SDS011;53689;56.878;60.672;2023-04-24T06:50:05;13.38;;;5.18;;
62523;SDS011;53689;56.878;60.672;2023-04-24T06:52:33;12.95;;;6.10;;
62523;SDS011;53689;56.878;60.672;2023-04-24T06:55:01;14.70;;;6.10;;
62523;SDS011;53689;56.878;60.672;2023-04-24T06:57:31;12.80;;;5.25;;
62523;SDS011;53689;56.878;60.672;2023-04-24T06:59:59;12.65;;;6.97;;
62523;SDS011;53689;56.878;60.672;2023-04-24T07:02:27;16.75;;;6.28;;
62523;SDS011;53689;56.878;60.672;2023-04-24T07:04:57;16.75;;;7.45;;
62523;SDS011;53689;56.878;60.672;2023-04-24T07:07:25;15.15;;;6.85;;
62523;SDS011;53689;56.878;60.672;2023-04-24T07:09:54;14.20;;;6.68;;
62523;SDS011;53689;56.878;60.672;2023-04-24T07:12:22;23.15;;;7.78;;
62523;SDS011;53689;56.878;60.672;2023-04-24T07:14:50;17.13;;;8.40;;
62523;SDS011;53689;56.878;60.672;2023-04-24T07:17:18;13.98;;;7.07;;
62523;SDS011;53689;56.878;60.672;2023-04-24T07:19:47;13.27;;;6.72;;
62523;SDS011;53689;56.878;60.672;2023-04-24T07:22:17;16.00;;;6.80;;
62523;SDS011;53689;56.878;60.672;2023-04-24T07:24:45;17.52;;;7.70;;
62523;SDS011;53689;56.878;60.672;2023-04-24T07:27:13;14.85;;;7.35;;
62523;SDS011;53689;56.878;60.672;2023-04-24T07:29:42;14.88;;;6.72;;
62523;SDS011;53689;56.878;60.672;2023-04-24T07:32:10;12.52;;;7.03;;
62523;SDS011;53689;56.878;60.672;2023-04-24T07:34:38;14.73;;;5.22;;
62523;SDS011;53689;56.878;60.672;2023-04-24T07:37:07;14.65;;;5.53;;
62523;SDS011;53689;56.878;60.672;2023-04-24T07:39:37;13.50;;;5.57;;
62523;SDS011;53689;56.878;60.672;2023-04-24T07:42:04;14.63;;;5.20;;
62523;SDS011;53689;56.878;60.672;2023-04-24T07:44:32;14.75;;;5.38;;
62523;SDS011;53689;56.878;60.672;2023-04-24T07:47:00;11.10;;;4.65;;
62523;SDS011;53689;56.878;60.672;2023-04-24T07:49:29;9.60;;;3.90;;
62523;SDS011;53689;56.878;60.672;2023-04-24T07:51:57;7.63;;;3.90;;
62523;SDS011;53689;56.878;60.672;2023-04-24T07:54:25;8.48;;;3.78;;
62523;SDS011;53689;56.878;60.672;2023-04-24T07:56:54;9.98;;;3.85;;
62523;SDS011;53689;56.878;60.672;2023-04-24T07:59:22;6.93;;;2.97;;
62523;SDS011;53689;56.878;60.672;2023-04-24T08:01:50;9.23;;;3.40;;
62523;SDS011;53689;56.878;60.672;2023-04-24T08:04:18;6.75;;;3.45;;
62523;SDS011;53689;56.878;60.672;2023-04-24T08:06:46;6.88;;;3.55;;
62523;SDS011;53689;56.878;60.672;2023-04-24T08:09:15;9.57;;;3.20;;
62523;SDS011;53689;56.878;60.672;2023-04-24T08:11:42;10.27;;;3.45;;
62523;SDS011;53689;56.878;60.672;2023-04-24T08:14:12;9.75;;;3.38;;
62523;SDS011;53689;56.878;60.672;2023-04-24T08:16:39;7.72;;;2.70;;
62523;SDS011;53689;56.878;60.672;2023-04-24T08:19:07;9.60;;;4.72;;
62523;SDS011;53689;56.878;60.672;2023-04-24T08:21:35;10.80;;;3.10;;
62523;SDS011;53689;56.878;60.672;2023-04-24T08:24:03;12.60;;;4.13;;
62523;SDS011;53689;56.878;60.672;2023-04-24T08:26:30;9.60;;;3.90;;
62523;SDS011;53689;56.878;60.672;2023-04-24T08:28:58;7.70;;;3.42;;
62523;SDS011;53689;56.878;60.672;2023-04-24T08:31:27;6.53;;;3.40;;
62523;SDS011;53689;56.878;60.672;2023-04-24T08:33:55;8.50;;;4.55;;
62523;SDS011;53689;56.878;60.672;2023-04-24T08:36:23;9.25;;;4.40;;
62523;SDS011;53689;56.878;60.672;2023-04-24T08:39:01;7.33;;;3.80;;
62523;SDS011;53689;56.878;60.672;2023-04-24T08:41:29;8.35;;;3.60;;
62523;SDS011;53689;56.878;60.672;2023-04-24T08:43:58;7.15;;;3.25;;
62523;SDS011;53689;56.878;60.672;2023-04-24T08:46:28;7.15;;;3.50;;
62523;SDS011;53689;56.878;60.672;2023-04-24T08:48:57;7.28;;;3.33;;
62523;SDS011;53689;56.878;60.672;2023-04-24T08:51:26;6.43;;;3.88;;
62523;SDS011;53689;56.878;60.672;2023-04-24T08:53:54;6.75;;;3.28;;
62523;SDS011;53689;56.878;60.672;2023-04-24T08:56:23;8.43;;;3.15;;
62523;SDS011;53689;56.878;60.672;2023-04-24T08:58:51;8.88;;;3.85;;
62523;SDS011;53689;56.878;60.672;2023-04-24T09:01:20;6.83;;;2.97;;
62523;SDS011;53689;56.878;60.672;2023-04-24T09:03:52;8.38;;;3.20;;
62523;SDS011;53689;56.878;60.672;2023-04-24T09:06:22;8.25;;;3.15;;
62523;SDS011;53689;56.878;60.672;2023-04-24T09:08:51;8.07;;;3.00;;
62523;SDS011;53689;56.878;60.672;2023-04-24T09:11:21;7.93;;;2.80;;
62523;SDS011;53689;56.878;60.672;2023-04-24T09:13:53;7.63;;;3.28;;
62523;SDS011;53689;56.878;60.672;2023-04-24T09:16:21;9.43;;;3.00;;
62523;SDS011;53689;56.878;60.672;2023-04-24T09:18:49;4.95;;;3.00;;
62523;SDS011;53689;56.878;60.672;2023-04-24T09:21:19;8.32;;;3.85;;
62523;SDS011;53689;56.878;60.672;2023-04-24T09:23:48;7.22;;;3.80;;
62523;SDS011;53689;56.878;60.672;2023-04-24T09:26:24;8.10;;;3.75;;
62523;SDS011;53689;56.878;60.672;2023-04-24T09:28:53;8.25;;;3.95;;
62523;SDS011;53689;56.878;60.672;2023-04-24T09:31:20;8.85;;;4.60;;
62523;SDS011;53689;56.878;60.672;2023-04-24T09:33:53;7.57;;;4.63;;
62523;SDS011;53689;56.878;60.672;2023-04-24T09:36:28;11.55;;;5.43;;
62523;SDS011;53689;56.878;60.672;2023-04-24T09:38:57;9.50;;;4.80;;
62523;SDS011;53689;56.878;60.672;2023-04-24T09:41:25;8.52;;;5.15;;
62523;SDS011;53689;56.878;60.672;2023-04-24T09:43:54;10.57;;;4.88;;
62523;SDS011;53689;56.878;60.672;2023-04-24T09:46:29;8.45;;;4.60;;
62523;SDS011;53689;56.878;60.672;2023-04-24T09:48:57;9.07;;;4.30;;
62523;SDS011;53689;56.878;60.672;2023-04-24T09:51:36;8.98;;;4.57;;
62523;SDS011;53689;56.878;60.672;2023-04-24T09:54:05;8.38;;;4.20;;
62523;SDS011;53689;56.878;60.672;2023-04-24T09:56:42;13.82;;;4.85;;
62523;SDS011;53689;56.878;60.672;2023-04-24T09:59:11;22.05;;;6.20;;
62523;SDS011;53689;56.878;60.672;2023-04-24T10:01:39;15.73;;;5.15;;
62523;SDS011;53689;56.878;60.672;2023-04-24T10:04:14;13.27;;;4.60;;
62523;SDS011;53689;56.878;60.672;2023-04-24T10:06:44;11.02;;;5.45;;
62523;SDS011;53689;56.878;60.672;2023-04-24T10:09:13;10.45;;;4.93;;
62523;SDS011;53689;56.878;60.672;2023-04-24T10:11:41;15.38;;;5.82;;
62523;SDS011;53689;56.878;60.672;2023-04-24T10:16:39;13.13;;;5.35;;
62523;SDS011;53689;56.878;60.672;2023-04-24T10:19:07;14.32;;;4.30;;
62523;SDS011;53689;56.878;60.672;2023-04-24T10:21:36;8.27;;;3.85;;
62523;SDS011;53689;56.878;60.672;2023-04-24T10:24:05;11.65;;;4.85;;
62523;SDS011;53689;56.878;60.672;2023-04-24T10:26:34;8.93;;;4.28;;
62523;SDS011;53689;56.878;60.672;2023-04-24T10:29:02;10.65;;;4.63;;
62523;SDS011;53689;56.878;60.672;2023-04-24T10:31:32;10.35;;;5.18;;
62523;SDS011;53689;56.878;60.672;2023-04-24T10:34:00;14.15;;;5.68;;
62523;SDS011;53689;56.878;60.672;2023-04-24T10:36:30;12.77;;;4.80;;
62523;SDS011;53689;56.878;60.672;2023-04-24T10:39:00;13.32;;;5.32;;
62523;SDS011;53689;56.878;60.672;2023-04-24T10:41:31;18.48;;;5.50;;
62523;SDS011;53689;56.878;60.672;2023-04-24T10:44:04;10.75;;;4.75;;
62523;SDS011;53689;56.878;60.672;2023-04-24T10:46:32;11.05;;;4.78;;
62523;SDS011;53689;56.878;60.672;2023-04-24T10:49:00;12.55;;;6.15;;
62523;SDS011;53689;56.878;60.672;2023-04-24T10:51:43;13.70;;;6.05;;
62523;SDS011;53689;56.878;60.672;2023-04-24T10:54:22;11.90;;;6.03;;
62523;SDS011;53689;56.878;60.672;2023-04-24T10:56:52;15.02;;;8.00;;
62523;SDS011;53689;56.878;60.672;2023-04-24T10:59:27;9.80;;;5.43;;
62523;SDS011;53689;56.878;60.672;2023-04-24T11:02:02;13.20;;;5.63;;
62523;SDS011;53689;56.878;60.672;2023-04-24T11:04:30;11.65;;;5.43;;
62523;SDS011;53689;56.878;60.672;2023-04-24T11:06:59;8.75;;;5.40;;
62523;SDS011;53689;56.878;60.672;2023-04-24T11:09:28;9.18;;;5.32;;
62523;SDS011;53689;56.878;60.672;2023-04-24T11:12:06;10.88;;;5.10;;
62523;SDS011;53689;56.878;60.672;2023-04-24T11:17:29;9.10;;;4.05;;
62523;SDS011;53689;56.878;60.672;2023-04-24T11:20:00;6.65;;;4.15;;
62523;SDS011;53689;56.878;60.672;2023-04-24T11:22:41;8.23;;;4.05;;
62523;SDS011;53689;56.878;60.672;2023-04-24T11:25:09;8.55;;;4.28;;
62523;SDS011;53689;56.878;60.672;2023-04-24T11:27:40;7.57;;;4.18;;
62523;SDS011;53689;56.878;60.672;2023-04-24T11:30:10;6.32;;;4.10;;
62523;SDS011;53689;56.878;60.672;2023-04-24T11:32:39;6.82;;;4.25;;
62523;SDS011;53689;56.878;60.672;2023-04-24T11:35:08;8.73;;;4.50;;
62523;SDS011;53689;56.878;60.672;2023-04-24T11:37:41;8.32;;;4.63;;
62523;SDS011;53689;56.878;60.672;2023-04-24T11:40:10;8.15;;;4.75;;
62523;SDS011;53689;56.878;60.672;2023-04-24T11:42:42;8.68;;;4.53;;
62523;SDS011;53689;56.878;60.672;2023-04-24T11:45:11;7.65;;;5.03;;
62523;SDS011;53689;56.878;60.672;2023-04-24T11:47:39;11.90;;;4.80;;
62523;SDS011;53689;56.878;60.672;2023-04-24T11:50:07;9.52;;;5.25;;
62523;SDS011;53689;56.878;60.672;2023-04-24T11:55:06;10.85;;;5.93;;
62523;SDS011;53689;56.878;60.672;2023-04-24T11:57:34;12.95;;;5.68;;
62523;SDS011;53689;56.878;60.672;2023-04-24T12:00:04;8.95;;;5.50;;
62523;SDS011;53689;56.878;60.672;2023-04-24T12:02:39;11.68;;;5.13;;
62523;SDS011;53689;56.878;60.672;2023-04-24T12:05:07;9.90;;;6.00;;
62523;SDS011;53689;56.878;60.672;2023-04-24T12:07:39;10.00;;;5.93;;
62523;SDS011;53689;56.878;60.672;2023-04-24T12:10:08;12.63;;;6.78;;
62523;SDS011;53689;56.878;60.672;2023-04-24T12:12:36;10.45;;;6.55;;
62523;SDS011;53689;56.878;60.672;2023-04-24T12:15:07;11.85;;;7.32;;
62523;SDS011;53689;56.878;60.672;2023-04-24T12:17:36;12.45;;;6.30;;
62523;SDS011;53689;56.878;60.672;2023-04-24T12:20:08;11.63;;;6.65;;
62523;SDS011;53689;56.878;60.672;2023-04-24T12:22:43;12.35;;;6.22;;
62523;SDS011;53689;56.878;60.672;2023-04-24T12:25:11;8.23;;;5.10;;
62523;SDS011;53689;56.878;60.672;2023-04-24T12:27:39;9.27;;;5.40;;
62523;SDS011;53689;56.878;60.672;2023-04-24T12:30:11;8.43;;;5.82;;
62523;SDS011;53689;56.878;60.672;2023-04-24T12:32:41;8.70;;;5.68;;
62523;SDS011;53689;56.878;60.672;2023-04-24T12:35:09;8.15;;;5.03;;
62523;SDS011;53689;56.878;60.672;2023-04-24T12:37:37;9.05;;;4.75;;
62523;SDS011;53689;56.878;60.672;2023-04-24T12:40:05;8.73;;;4.65;;
62523;SDS011;53689;56.878;60.672;2023-04-24T12:42:36;8.40;;;5.10;;
62523;SDS011;53689;56.878;60.672;2023-04-24T12:45:11;8.95;;;5.18;;
62523;SDS011;53689;56.878;60.672;2023-04-24T12:47:39;9.43;;;4.63;;
62523;SDS011;53689;56.878;60.672;2023-04-24T12:50:08;9.65;;;4.90;;
62523;SDS011;53689;56.878;60.672;2023-04-24T12:52:36;6.97;;;4.90;;
62523;SDS011;53689;56.878;60.672;2023-04-24T12:55:05;9.32;;;5.38;;
62523;SDS011;53689;56.878;60.672;2023-04-24T12:57:33;9.60;;;5.50;;
62523;SDS011;53689;56.878;60.672;2023-04-24T13:00:03;8.90;;;4.97;;
62523;SDS011;53689;56.878;60.672;2023-04-24T13:05:01;9.32;;;4.60;;
62523;SDS011;53689;56.878;60.672;2023-04-24T13:07:29;8.65;;;5.10;;
62523;SDS011;53689;56.878;60.672;2023-04-24T13:09:57;11.80;;;6.05;;
62523;SDS011;53689;56.878;60.672;2023-04-24T13:12:25;8.02;;;5.18;;
62523;SDS011;53689;56.878;60.672;2023-04-24T13:14:52;8.82;;;5.53;;
62523;SDS011;53689;56.878;60.672;2023-04-24T13:17:21;10.25;;;5.95;;
62523;SDS011;53689;56.878;60.672;2023-04-24T13:19:50;10.93;;;5.55;;
62523;SDS011;53689;56.878;60.672;2023-04-24T13:24:46;10.93;;;5.20;;
62523;SDS011;53689;56.878;60.672;2023-04-24T13:27:14;9.98;;;5.57;;
62523;SDS011;53689;56.878;60.672;2023-04-24T13:29:41;10.52;;;5.60;;
62523;SDS011;53689;56.878;60.672;2023-04-24T13:32:09;9.18;;;5.60;;
62523;SDS011;53689;56.878;60.672;2023-04-24T13:34:37;11.65;;;5.75;;
62523;SDS011;53689;56.878;60.672;2023-04-24T13:37:06;10.27;;;5.50;;
62523;SDS011;53689;56.878;60.672;2023-04-24T13:39:33;8.85;;;5.38;;
62523;SDS011;53689;56.878;60.672;2023-04-24T13:42:01;9.65;;;4.97;;
62523;SDS011;53689;56.878;60.672;2023-04-24T13:44:30;9.98;;;4.57;;
62523;SDS011;53689;56.878;60.672;2023-04-24T13:46:58;9.50;;;4.93;;
62523;SDS011;53689;56.878;60.672;2023-04-24T13:49:26;9.60;;;5.85;;
62523;SDS011;53689;56.878;60.672;2023-04-24T13:51:54;7.82;;;5.38;;
62523;SDS011;53689;56.878;60.672;2023-04-24T13:54:24;7.85;;;5.22;;
62523;SDS011;53689;56.878;60.672;2023-04-24T13:56:52;8.02;;;5.10;;
62523;SDS011;53689;56.878;60.672;2023-04-24T13:59:20;8.90;;;5.57;;
62523;SDS011;53689;56.878;60.672;2023-04-24T14:01:48;9.60;;;4.88;;
62523;SDS011;53689;56.878;60.672;2023-04-24T14:04:16;7.32;;;4.47;;
62523;SDS011;53689;56.878;60.672;2023-04-24T14:06:44;8.70;;;4.78;;
62523;SDS011;53689;56.878;60.672;2023-04-24T14:09:12;8.95;;;4.45;;
62523;SDS011;53689;56.878;60.672;2023-04-24T14:11:41;8.77;;;4.85;;
62523;SDS011;53689;56.878;60.672;2023-04-24T14:14:08;8.35;;;4.03;;
62523;SDS011;53689;56.878;60.672;2023-04-24T14:16:36;10.35;;;4.05;;
62523;SDS011;53689;56.878;60.672;2023-04-24T14:19:04;6.15;;;2.90;;
62523;SDS011;53689;56.878;60.672;2023-04-24T14:21:32;18.60;;;4.15;;
62523;SDS011;53689;56.878;60.672;2023-04-24T14:24:00;12.52;;;3.10;;
62523;SDS011;53689;56.878;60.672;2023-04-24T14:26:27;9.07;;;2.80;;
62523;SDS011;53689;56.878;60.672;2023-04-24T14:28:56;9.45;;;3.33;;
62523;SDS011;53689;56.878;60.672;2023-04-24T14:31:40;7.03;;;2.95;;
62523;SDS011;53689;56.878;60.672;2023-04-24T14:34:07;10.90;;;2.78;;
62523;SDS011;53689;56.878;60.672;2023-04-24T14:36:35;13.60;;;4.95;;
62523;SDS011;53689;56.878;60.672;2023-04-24T14:39:03;7.43;;;3.15;;
62523;SDS011;53689;56.878;60.672;2023-04-24T14:41:31;7.85;;;2.78;;
62523;SDS011;53689;56.878;60.672;2023-04-24T14:43:59;11.52;;;3.05;;
62523;SDS011;53689;56.878;60.672;2023-04-24T14:46:27;11.07;;;4.47;;
62523;SDS011;53689;56.878;60.672;2023-04-24T14:48:55;11.25;;;3.78;;
62523;SDS011;53689;56.878;60.672;2023-04-24T14:51:23;8.20;;;3.13;;
62523;SDS011;53689;56.878;60.672;2023-04-24T14:53:51;7.63;;;3.10;;
62523;SDS011;53689;56.878;60.672;2023-04-24T14:56:18;8.38;;;3.45;;
62523;SDS011;53689;56.878;60.672;2023-04-24T14:58:46;9.63;;;3.33;;
62523;SDS011;53689;56.878;60.672;2023-04-24T15:01:15;10.60;;;3.65;;
62523;SDS011;53689;56.878;60.672;2023-04-24T15:03:43;7.85;;;3.75;;
62523;SDS011;53689;56.878;60.672;2023-04-24T15:06:12;8.98;;;3.42;;